sensor_id;sensor_type;location;lat;lon;timestamp;P1;durP1;ratioP1;P2;durP2;ratioP2
49828;SDS011;35723;51.194;5.112;2022-09-01T00:02:22;4.05;;;1.88;;
49828;SDS011;35723;51.194;5.112;2022-09-01T00:04:50;5.80;;;2.00;;
49828;SDS011;35723;51.194;5.112;2022-09-01T00:07:16;5.00;;;2.15;;
49828;SDS011;35723;51.194;5.112;2022-09-01T00:09:42;3.95;;;1.70;;
49828;SDS011;35723;51.194;5.112;2022-09-01T00:12:08;4.63;;;1.85;;
49828;SDS011;35723;51.194;5.112;2022-09-01T00:14:35;6.45;;;1.52;;
49828;SDS011;35723;51.194;5.112;2022-09-01T00:17:04;3.33;;;1.80;;
49828;SDS011;35723;51.194;5.112;2022-09-01T00:19:32;6.53;;;1.70;;
49828;SDS011;35723;51.194;5.112;2022-09-01T00:21:59;7.10;;;2.05;;
49828;SDS011;35723;51.194;5.112;2022-09-01T00:24:26;6.53;;;1.85;;
49828;SDS011;35723;51.194;5.112;2022-09-01T00:26:52;6.88;;;1.90;;
49828;SDS011;35723;51.194;5.112;2022-09-01T00:29:19;6.85;;;1.60;;
49828;SDS011;35723;51.194;5.112;2022-09-01T00:31:44;6.28;;;1.80;;
49828;SDS011;35723;51.194;5.112;2022-09-01T00:34:10;8.10;;;2.13;;
49828;SDS011;35723;51.194;5.112;2022-09-01T00:36:36;7.68;;;1.98;;
49828;SDS011;35723;51.194;5.112;2022-09-01T00:39:03;7.32;;;1.90;;
49828;SDS011;35723;51.194;5.112;2022-09-01T00:41:30;7.38;;;1.90;;
49828;SDS011;35723;51.194;5.112;2022-09-01T00:44:02;7.43;;;1.80;;
49828;SDS011;35723;51.194;5.112;2022-09-01T00:46:32;5.32;;;2.13;;
49828;SDS011;35723;51.194;5.112;2022-09-01T00:49:04;6.20;;;1.95;;
49828;SDS011;35723;51.194;5.112;2022-09-01T00:51:36;5.32;;;1.67;;
49828;SDS011;35723;51.194;5.112;2022-09-01T00:54:05;8.05;;;1.77;;
49828;SDS011;35723;51.194;5.112;2022-09-01T00:56:33;9.82;;;2.03;;
49828;SDS011;35723;51.194;5.112;2022-09-01T00:59:01;8.60;;;2.25;;
49828;SDS011;35723;51.194;5.112;2022-09-01T01:01:30;5.28;;;2.05;;
49828;SDS011;35723;51.194;5.112;2022-09-01T01:03:55;5.63;;;1.88;;
49828;SDS011;35723;51.194;5.112;2022-09-01T01:06:21;5.32;;;2.15;;
49828;SDS011;35723;51.194;5.112;2022-09-01T01:08:52;4.72;;;2.08;;
49828;SDS011;35723;51.194;5.112;2022-09-01T01:11:22;7.65;;;2.22;;
49828;SDS011;35723;51.194;5.112;2022-09-01T01:16:19;11.40;;;2.60;;
49828;SDS011;35723;51.194;5.112;2022-09-01T01:18:46;11.63;;;3.00;;
49828;SDS011;35723;51.194;5.112;2022-09-01T01:21:17;7.25;;;2.60;;
49828;SDS011;35723;51.194;5.112;2022-09-01T01:24:46;9.45;;;2.97;;
49828;SDS011;35723;51.194;5.112;2022-09-01T01:26:55;6.38;;;2.80;;
49828;SDS011;35723;51.194;5.112;2022-09-01T01:29:23;11.70;;;3.63;;
49828;SDS011;35723;51.194;5.112;2022-09-01T01:31:56;14.05;;;3.88;;
49828;SDS011;35723;51.194;5.112;2022-09-01T01:34:22;12.43;;;3.58;;
49828;SDS011;35723;51.194;5.112;2022-09-01T01:36:48;8.95;;;3.75;;
49828;SDS011;35723;51.194;5.112;2022-09-01T01:39:22;12.25;;;3.72;;
49828;SDS011;35723;51.194;5.112;2022-09-01T01:41:49;12.23;;;3.83;;
49828;SDS011;35723;51.194;5.112;2022-09-01T01:44:19;14.75;;;4.40;;
49828;SDS011;35723;51.194;5.112;2022-09-01T01:46:49;14.70;;;4.83;;
49828;SDS011;35723;51.194;5.112;2022-09-01T01:49:18;18.85;;;5.07;;
49828;SDS011;35723;51.194;5.112;2022-09-01T01:51:47;14.70;;;4.65;;
49828;SDS011;35723;51.194;5.112;2022-09-01T01:54:20;14.48;;;5.22;;
49828;SDS011;35723;51.194;5.112;2022-09-01T01:56:47;18.50;;;5.70;;
49828;SDS011;35723;51.194;5.112;2022-09-01T01:59:12;16.45;;;5.05;;
49828;SDS011;35723;51.194;5.112;2022-09-01T02:01:40;17.75;;;5.45;;
49828;SDS011;35723;51.194;5.112;2022-09-01T02:04:07;15.43;;;5.13;;
49828;SDS011;35723;51.194;5.112;2022-09-01T02:06:35;18.88;;;5.72;;
49828;SDS011;35723;51.194;5.112;2022-09-01T02:09:05;17.10;;;5.78;;
49828;SDS011;35723;51.194;5.112;2022-09-01T02:11:31;16.45;;;5.78;;
49828;SDS011;35723;51.194;5.112;2022-09-01T02:13:58;21.08;;;5.95;;
49828;SDS011;35723;51.194;5.112;2022-09-01T02:16:25;21.85;;;6.20;;
49828;SDS011;35723;51.194;5.112;2022-09-01T02:18:53;19.80;;;5.75;;
49828;SDS011;35723;51.194;5.112;2022-09-01T02:21:20;18.17;;;6.13;;
49828;SDS011;35723;51.194;5.112;2022-09-01T02:23:48;20.73;;;6.63;;
49828;SDS011;35723;51.194;5.112;2022-09-01T02:26:23;15.95;;;6.22;;
49828;SDS011;35723;51.194;5.112;2022-09-01T02:28:56;21.25;;;7.03;;
49828;SDS011;35723;51.194;5.112;2022-09-01T02:31:28;24.55;;;7.25;;
49828;SDS011;35723;51.194;5.112;2022-09-01T02:33:55;20.90;;;7.28;;
49828;SDS011;35723;51.194;5.112;2022-09-01T02:36:22;20.52;;;7.55;;
49828;SDS011;35723;51.194;5.112;2022-09-01T02:38:49;20.63;;;7.00;;
49828;SDS011;35723;51.194;5.112;2022-09-01T02:41:16;29.73;;;8.23;;
49828;SDS011;35723;51.194;5.112;2022-09-01T02:43:44;24.65;;;8.07;;
49828;SDS011;35723;51.194;5.112;2022-09-01T02:46:11;28.00;;;9.40;;
49828;SDS011;35723;51.194;5.112;2022-09-01T02:48:38;27.27;;;9.45;;
49828;SDS011;35723;51.194;5.112;2022-09-01T02:51:06;31.38;;;10.48;;
49828;SDS011;35723;51.194;5.112;2022-09-01T02:53:41;28.40;;;10.10;;
49828;SDS011;35723;51.194;5.112;2022-09-01T02:56:08;25.83;;;10.57;;
49828;SDS011;35723;51.194;5.112;2022-09-01T02:58:37;29.23;;;11.20;;
49828;SDS011;35723;51.194;5.112;2022-09-01T03:01:27;32.05;;;11.77;;
49828;SDS011;35723;51.194;5.112;2022-09-01T03:03:56;29.95;;;12.00;;
49828;SDS011;35723;51.194;5.112;2022-09-01T03:06:23;31.48;;;12.05;;
49828;SDS011;35723;51.194;5.112;2022-09-01T03:08:53;31.75;;;12.55;;
49828;SDS011;35723;51.194;5.112;2022-09-01T03:11:23;30.70;;;12.40;;
49828;SDS011;35723;51.194;5.112;2022-09-01T03:13:49;34.30;;;13.00;;
49828;SDS011;35723;51.194;5.112;2022-09-01T03:16:15;33.78;;;13.60;;
49828;SDS011;35723;51.194;5.112;2022-09-01T03:18:41;32.35;;;13.32;;
49828;SDS011;35723;51.194;5.112;2022-09-01T03:21:10;35.33;;;13.63;;
49828;SDS011;35723;51.194;5.112;2022-09-01T03:23:40;33.53;;;13.55;;
49828;SDS011;35723;51.194;5.112;2022-09-01T03:26:06;35.72;;;12.98;;
49828;SDS011;35723;51.194;5.112;2022-09-01T03:28:32;33.65;;;12.77;;
49828;SDS011;35723;51.194;5.112;2022-09-01T03:30:58;33.20;;;12.90;;
49828;SDS011;35723;51.194;5.112;2022-09-01T03:33:24;36.15;;;12.35;;
49828;SDS011;35723;51.194;5.112;2022-09-01T03:35:51;30.95;;;12.38;;
49828;SDS011;35723;51.194;5.112;2022-09-01T03:38:17;33.45;;;12.13;;
49828;SDS011;35723;51.194;5.112;2022-09-01T03:40:48;32.00;;;12.75;;
49828;SDS011;35723;51.194;5.112;2022-09-01T03:43:22;31.02;;;12.18;;
49828;SDS011;35723;51.194;5.112;2022-09-01T03:45:48;30.30;;;12.68;;
49828;SDS011;35723;51.194;5.112;2022-09-01T03:48:14;30.83;;;13.02;;
49828;SDS011;35723;51.194;5.112;2022-09-01T03:50:41;28.98;;;12.05;;
49828;SDS011;35723;51.194;5.112;2022-09-01T03:53:18;32.28;;;12.30;;
49828;SDS011;35723;51.194;5.112;2022-09-01T03:55:47;32.08;;;12.93;;
49828;SDS011;35723;51.194;5.112;2022-09-01T03:58:16;33.08;;;13.38;;
49828;SDS011;35723;51.194;5.112;2022-09-01T04:00:45;31.27;;;13.30;;
49828;SDS011;35723;51.194;5.112;2022-09-01T04:03:13;35.33;;;13.20;;
49828;SDS011;35723;51.194;5.112;2022-09-01T04:05:42;34.13;;;14.00;;
49828;SDS011;35723;51.194;5.112;2022-09-01T04:08:09;33.75;;;14.32;;
49828;SDS011;35723;51.194;5.112;2022-09-01T04:10:41;34.83;;;13.32;;
49828;SDS011;35723;51.194;5.112;2022-09-01T04:13:14;33.97;;;13.00;;
49828;SDS011;35723;51.194;5.112;2022-09-01T04:15:42;32.33;;;13.68;;
49828;SDS011;35723;51.194;5.112;2022-09-01T04:18:07;30.00;;;14.40;;
49828;SDS011;35723;51.194;5.112;2022-09-01T04:20:43;36.28;;;13.98;;
49828;SDS011;35723;51.194;5.112;2022-09-01T04:23:15;35.65;;;13.88;;
49828;SDS011;35723;51.194;5.112;2022-09-01T04:25:51;33.78;;;14.60;;
49828;SDS011;35723;51.194;5.112;2022-09-01T04:28:20;36.13;;;15.27;;
49828;SDS011;35723;51.194;5.112;2022-09-01T04:30:54;39.97;;;15.10;;
49828;SDS011;35723;51.194;5.112;2022-09-01T04:33:22;36.83;;;15.77;;
49828;SDS011;35723;51.194;5.112;2022-09-01T04:35:49;37.08;;;15.82;;
49828;SDS011;35723;51.194;5.112;2022-09-01T04:38:16;43.83;;;17.15;;
49828;SDS011;35723;51.194;5.112;2022-09-01T04:40:42;35.97;;;16.38;;
49828;SDS011;35723;51.194;5.112;2022-09-01T04:43:07;38.83;;;16.55;;
49828;SDS011;35723;51.194;5.112;2022-09-01T04:45:34;36.90;;;16.70;;
49828;SDS011;35723;51.194;5.112;2022-09-01T04:48:03;37.63;;;17.15;;
49828;SDS011;35723;51.194;5.112;2022-09-01T04:50:29;39.03;;;17.08;;
49828;SDS011;35723;51.194;5.112;2022-09-01T04:53:00;40.75;;;17.42;;
49828;SDS011;35723;51.194;5.112;2022-09-01T04:55:27;43.92;;;18.55;;
49828;SDS011;35723;51.194;5.112;2022-09-01T04:57:55;42.33;;;17.23;;
49828;SDS011;35723;51.194;5.112;2022-09-01T05:00:23;41.03;;;17.83;;
49828;SDS011;35723;51.194;5.112;2022-09-01T05:02:51;45.08;;;18.88;;
49828;SDS011;35723;51.194;5.112;2022-09-01T05:05:20;46.70;;;19.45;;
49828;SDS011;35723;51.194;5.112;2022-09-01T05:07:47;43.75;;;19.52;;
49828;SDS011;35723;51.194;5.112;2022-09-01T05:10:19;44.90;;;20.05;;
49828;SDS011;35723;51.194;5.112;2022-09-01T05:12:46;41.42;;;18.88;;
49828;SDS011;35723;51.194;5.112;2022-09-01T05:15:13;44.88;;;19.90;;
49828;SDS011;35723;51.194;5.112;2022-09-01T05:17:41;48.03;;;20.80;;
49828;SDS011;35723;51.194;5.112;2022-09-01T05:20:08;46.38;;;20.33;;
49828;SDS011;35723;51.194;5.112;2022-09-01T05:22:35;46.55;;;20.80;;
49828;SDS011;35723;51.194;5.112;2022-09-01T05:25:06;46.63;;;19.88;;
49828;SDS011;35723;51.194;5.112;2022-09-01T05:27:42;42.40;;;19.48;;
49828;SDS011;35723;51.194;5.112;2022-09-01T05:30:15;45.17;;;20.10;;
49828;SDS011;35723;51.194;5.112;2022-09-01T05:32:42;43.15;;;19.83;;
49828;SDS011;35723;51.194;5.112;2022-09-01T05:35:11;41.38;;;19.67;;
49828;SDS011;35723;51.194;5.112;2022-09-01T05:37:37;43.63;;;19.75;;
49828;SDS011;35723;51.194;5.112;2022-09-01T05:40:07;48.08;;;20.40;;
49828;SDS011;35723;51.194;5.112;2022-09-01T05:42:39;41.47;;;18.95;;
49828;SDS011;35723;51.194;5.112;2022-09-01T05:45:08;42.95;;;18.42;;
49828;SDS011;35723;51.194;5.112;2022-09-01T05:47:36;41.28;;;18.85;;
49828;SDS011;35723;51.194;5.112;2022-09-01T05:50:03;46.25;;;19.17;;
49828;SDS011;35723;51.194;5.112;2022-09-01T05:52:32;44.22;;;18.70;;
49828;SDS011;35723;51.194;5.112;2022-09-01T05:54:58;45.20;;;18.50;;
49828;SDS011;35723;51.194;5.112;2022-09-01T05:57:24;42.25;;;17.30;;
49828;SDS011;35723;51.194;5.112;2022-09-01T05:59:50;39.42;;;16.58;;
49828;SDS011;35723;51.194;5.112;2022-09-01T06:02:18;40.00;;;16.63;;
49828;SDS011;35723;51.194;5.112;2022-09-01T06:04:45;39.70;;;17.55;;
49828;SDS011;35723;51.194;5.112;2022-09-01T06:07:11;40.33;;;16.92;;
49828;SDS011;35723;51.194;5.112;2022-09-01T06:09:45;36.88;;;16.67;;
49828;SDS011;35723;51.194;5.112;2022-09-01T06:12:12;41.92;;;17.40;;
49828;SDS011;35723;51.194;5.112;2022-09-01T06:14:43;41.67;;;16.63;;
49828;SDS011;35723;51.194;5.112;2022-09-01T06:17:09;43.05;;;16.65;;
49828;SDS011;35723;51.194;5.112;2022-09-01T06:19:36;40.92;;;16.40;;
49828;SDS011;35723;51.194;5.112;2022-09-01T06:22:04;37.70;;;16.50;;
49828;SDS011;35723;51.194;5.112;2022-09-01T06:24:29;38.75;;;15.65;;
49828;SDS011;35723;51.194;5.112;2022-09-01T06:26:55;37.60;;;16.75;;
49828;SDS011;35723;51.194;5.112;2022-09-01T06:29:21;41.83;;;18.23;;
49828;SDS011;35723;51.194;5.112;2022-09-01T06:31:46;39.45;;;16.42;;
49828;SDS011;35723;51.194;5.112;2022-09-01T06:34:15;44.53;;;17.02;;
49828;SDS011;35723;51.194;5.112;2022-09-01T06:36:42;44.83;;;16.52;;
49828;SDS011;35723;51.194;5.112;2022-09-01T06:39:10;39.10;;;16.45;;
49828;SDS011;35723;51.194;5.112;2022-09-01T06:41:46;40.83;;;15.75;;
49828;SDS011;35723;51.194;5.112;2022-09-01T06:44:17;41.45;;;16.17;;
49828;SDS011;35723;51.194;5.112;2022-09-01T06:46:47;38.92;;;15.98;;
49828;SDS011;35723;51.194;5.112;2022-09-01T06:49:13;37.67;;;15.82;;
49828;SDS011;35723;51.194;5.112;2022-09-01T06:51:39;36.47;;;15.40;;
49828;SDS011;35723;51.194;5.112;2022-09-01T06:54:05;40.67;;;15.43;;
49828;SDS011;35723;51.194;5.112;2022-09-01T06:56:31;36.03;;;14.38;;
49828;SDS011;35723;51.194;5.112;2022-09-01T06:58:58;36.65;;;14.27;;
49828;SDS011;35723;51.194;5.112;2022-09-01T07:01:25;34.20;;;13.95;;
49828;SDS011;35723;51.194;5.112;2022-09-01T07:03:52;31.20;;;13.13;;
49828;SDS011;35723;51.194;5.112;2022-09-01T07:06:21;31.35;;;12.98;;
49828;SDS011;35723;51.194;5.112;2022-09-01T07:08:55;32.00;;;13.27;;
49828;SDS011;35723;51.194;5.112;2022-09-01T07:11:32;35.47;;;12.38;;
49828;SDS011;35723;51.194;5.112;2022-09-01T07:14:01;34.33;;;12.35;;
49828;SDS011;35723;51.194;5.112;2022-09-01T07:16:30;31.10;;;10.55;;
49828;SDS011;35723;51.194;5.112;2022-09-01T07:19:02;30.05;;;11.10;;
49828;SDS011;35723;51.194;5.112;2022-09-01T07:21:28;35.00;;;10.90;;
49828;SDS011;35723;51.194;5.112;2022-09-01T07:23:56;28.73;;;9.70;;
49828;SDS011;35723;51.194;5.112;2022-09-01T07:26:25;30.40;;;10.23;;
49828;SDS011;35723;51.194;5.112;2022-09-01T07:28:53;27.70;;;9.68;;
49828;SDS011;35723;51.194;5.112;2022-09-01T07:31:19;23.52;;;8.85;;
49828;SDS011;35723;51.194;5.112;2022-09-01T07:33:49;26.48;;;8.73;;
49828;SDS011;35723;51.194;5.112;2022-09-01T07:36:17;27.92;;;8.52;;
49828;SDS011;35723;51.194;5.112;2022-09-01T07:38:43;24.95;;;7.10;;
49828;SDS011;35723;51.194;5.112;2022-09-01T07:41:10;20.40;;;7.00;;
49828;SDS011;35723;51.194;5.112;2022-09-01T07:43:39;18.50;;;5.55;;
49828;SDS011;35723;51.194;5.112;2022-09-01T07:46:08;19.35;;;6.18;;
49828;SDS011;35723;51.194;5.112;2022-09-01T07:48:35;17.90;;;5.97;;
49828;SDS011;35723;51.194;5.112;2022-09-01T07:51:01;20.55;;;5.75;;
49828;SDS011;35723;51.194;5.112;2022-09-01T07:53:28;21.58;;;5.18;;
49828;SDS011;35723;51.194;5.112;2022-09-01T07:55:58;9.88;;;4.28;;
49828;SDS011;35723;51.194;5.112;2022-09-01T07:58:31;14.32;;;4.05;;
49828;SDS011;35723;51.194;5.112;2022-09-01T08:00:57;11.20;;;3.70;;
49828;SDS011;35723;51.194;5.112;2022-09-01T08:03:27;15.45;;;3.70;;
49828;SDS011;35723;51.194;5.112;2022-09-01T08:05:54;14.05;;;3.60;;
49828;SDS011;35723;51.194;5.112;2022-09-01T08:08:25;12.35;;;3.78;;
49828;SDS011;35723;51.194;5.112;2022-09-01T08:10:51;10.82;;;3.40;;
49828;SDS011;35723;51.194;5.112;2022-09-01T08:13:17;12.30;;;3.30;;
49828;SDS011;35723;51.194;5.112;2022-09-01T08:15:43;9.80;;;3.50;;
49828;SDS011;35723;51.194;5.112;2022-09-01T08:18:09;10.65;;;3.40;;
49828;SDS011;35723;51.194;5.112;2022-09-01T08:20:36;15.02;;;3.70;;
49828;SDS011;35723;51.194;5.112;2022-09-01T08:23:05;10.93;;;3.30;;
49828;SDS011;35723;51.194;5.112;2022-09-01T08:25:32;8.30;;;3.28;;
49828;SDS011;35723;51.194;5.112;2022-09-01T08:28:00;12.32;;;3.60;;
49828;SDS011;35723;51.194;5.112;2022-09-01T08:30:26;13.63;;;3.50;;
49828;SDS011;35723;51.194;5.112;2022-09-01T08:32:53;10.68;;;3.60;;
49828;SDS011;35723;51.194;5.112;2022-09-01T08:35:19;14.02;;;3.60;;
49828;SDS011;35723;51.194;5.112;2022-09-01T08:37:45;13.27;;;3.90;;
49828;SDS011;35723;51.194;5.112;2022-09-01T08:40:12;7.05;;;3.30;;
49828;SDS011;35723;51.194;5.112;2022-09-01T08:45:12;10.43;;;3.25;;
49828;SDS011;35723;51.194;5.112;2022-09-01T08:47:51;8.27;;;2.83;;
49828;SDS011;35723;51.194;5.112;2022-09-01T08:52:53;14.40;;;3.30;;
49828;SDS011;35723;51.194;5.112;2022-09-01T08:55:35;16.13;;;3.00;;
49828;SDS011;35723;51.194;5.112;2022-09-01T08:58:07;12.27;;;3.20;;
49828;SDS011;35723;51.194;5.112;2022-09-01T09:00:41;16.13;;;3.13;;
49828;SDS011;35723;51.194;5.112;2022-09-01T09:03:19;13.73;;;2.95;;
49828;SDS011;35723;51.194;5.112;2022-09-01T09:14:47;8.25;;;2.60;;
49828;SDS011;35723;51.194;5.112;2022-09-01T09:20:04;7.72;;;2.70;;
49828;SDS011;35723;51.194;5.112;2022-09-01T09:22:31;14.20;;;2.78;;
49828;SDS011;35723;51.194;5.112;2022-09-01T09:25:11;17.73;;;2.90;;
49828;SDS011;35723;51.194;5.112;2022-09-01T09:27:39;13.00;;;2.50;;
49828;SDS011;35723;51.194;5.112;2022-09-01T09:30:11;10.95;;;2.75;;
49828;SDS011;35723;51.194;5.112;2022-09-01T09:35:32;14.13;;;2.72;;
49828;SDS011;35723;51.194;5.112;2022-09-01T09:46:36;11.88;;;2.40;;
49828;SDS011;35723;51.194;5.112;2022-09-01T09:51:35;7.95;;;2.50;;
49828;SDS011;35723;51.194;5.112;2022-09-01T09:54:12;8.82;;;2.25;;
49828;SDS011;35723;51.194;5.112;2022-09-01T09:56:40;10.10;;;2.60;;
49828;SDS011;35723;51.194;5.112;2022-09-01T10:01:45;13.27;;;2.50;;
49828;SDS011;35723;51.194;5.112;2022-09-01T10:04:29;10.20;;;2.60;;
49828;SDS011;35723;51.194;5.112;2022-09-01T10:11:50;7.43;;;2.53;;
49828;SDS011;35723;51.194;5.112;2022-09-01T10:15:05;8.95;;;2.35;;
49828;SDS011;35723;51.194;5.112;2022-09-01T10:17:24;8.70;;;2.53;;
49828;SDS011;35723;51.194;5.112;2022-09-01T10:20:00;8.90;;;2.33;;
49828;SDS011;35723;51.194;5.112;2022-09-01T10:22:31;11.00;;;2.80;;
49828;SDS011;35723;51.194;5.112;2022-09-01T10:24:58;11.20;;;2.47;;
49828;SDS011;35723;51.194;5.112;2022-09-01T10:27:31;6.18;;;2.60;;
49828;SDS011;35723;51.194;5.112;2022-09-01T10:32:31;7.40;;;2.55;;
49828;SDS011;35723;51.194;5.112;2022-09-01T10:35:02;8.65;;;2.30;;
49828;SDS011;35723;51.194;5.112;2022-09-01T10:37:28;10.85;;;2.60;;
49828;SDS011;35723;51.194;5.112;2022-09-01T10:40:12;9.65;;;2.70;;
49828;SDS011;35723;51.194;5.112;2022-09-01T10:42:45;7.93;;;2.30;;
49828;SDS011;35723;51.194;5.112;2022-09-01T10:45:36;11.10;;;2.65;;
49828;SDS011;35723;51.194;5.112;2022-09-01T10:53:48;14.57;;;2.58;;
49828;SDS011;35723;51.194;5.112;2022-09-01T10:56:24;7.13;;;2.38;;
49828;SDS011;35723;51.194;5.112;2022-09-01T11:04:10;3.65;;;2.10;;
49828;SDS011;35723;51.194;5.112;2022-09-01T11:06:54;10.77;;;2.40;;
49828;SDS011;35723;51.194;5.112;2022-09-01T11:09:43;7.25;;;2.45;;
49828;SDS011;35723;51.194;5.112;2022-09-01T11:14:47;4.93;;;2.30;;
49828;SDS011;35723;51.194;5.112;2022-09-01T11:17:35;11.88;;;2.15;;
49828;SDS011;35723;51.194;5.112;2022-09-01T11:22:57;7.30;;;1.92;;
49828;SDS011;35723;51.194;5.112;2022-09-01T11:25:37;10.50;;;2.00;;
49828;SDS011;35723;51.194;5.112;2022-09-01T11:36:02;6.55;;;2.00;;
49828;SDS011;35723;51.194;5.112;2022-09-01T11:38:58;3.33;;;1.92;;
49828;SDS011;35723;51.194;5.112;2022-09-01T11:41:33;8.65;;;2.08;;
49828;SDS011;35723;51.194;5.112;2022-09-01T11:44:10;5.70;;;2.00;;
49828;SDS011;35723;51.194;5.112;2022-09-01T11:46:40;10.55;;;2.22;;
49828;SDS011;35723;51.194;5.112;2022-09-01T11:49:22;5.70;;;2.20;;
49828;SDS011;35723;51.194;5.112;2022-09-01T11:51:49;9.95;;;2.00;;
49828;SDS011;35723;51.194;5.112;2022-09-01T11:54:15;8.20;;;2.00;;
49828;SDS011;35723;51.194;5.112;2022-09-01T11:56:41;8.02;;;2.08;;
49828;SDS011;35723;51.194;5.112;2022-09-01T11:59:06;3.78;;;1.83;;
49828;SDS011;35723;51.194;5.112;2022-09-01T12:01:33;7.22;;;2.35;;
49828;SDS011;35723;51.194;5.112;2022-09-01T12:04:17;6.13;;;1.98;;
49828;SDS011;35723;51.194;5.112;2022-09-01T12:06:51;4.03;;;1.73;;
49828;SDS011;35723;51.194;5.112;2022-09-01T12:09:19;11.95;;;2.10;;
49828;SDS011;35723;51.194;5.112;2022-09-01T12:11:44;8.45;;;2.10;;
49828;SDS011;35723;51.194;5.112;2022-09-01T12:14:10;7.72;;;2.00;;
49828;SDS011;35723;51.194;5.112;2022-09-01T12:16:43;4.90;;;1.70;;
49828;SDS011;35723;51.194;5.112;2022-09-01T12:19:23;3.80;;;1.83;;
49828;SDS011;35723;51.194;5.112;2022-09-01T12:21:59;10.35;;;1.70;;
49828;SDS011;35723;51.194;5.112;2022-09-01T12:24:27;8.48;;;2.55;;
49828;SDS011;35723;51.194;5.112;2022-09-01T12:26:58;6.90;;;1.80;;
49828;SDS011;35723;51.194;5.112;2022-09-01T12:29:25;4.07;;;1.88;;
49828;SDS011;35723;51.194;5.112;2022-09-01T12:31:52;5.40;;;1.83;;
49828;SDS011;35723;51.194;5.112;2022-09-01T12:34:35;10.27;;;2.03;;
49828;SDS011;35723;51.194;5.112;2022-09-01T12:37:20;7.38;;;1.90;;
49828;SDS011;35723;51.194;5.112;2022-09-01T12:39:48;7.60;;;1.90;;
49828;SDS011;35723;51.194;5.112;2022-09-01T12:50:07;5.68;;;2.05;;
49828;SDS011;35723;51.194;5.112;2022-09-01T12:52:57;9.55;;;2.65;;
49828;SDS011;35723;51.194;5.112;2022-09-01T12:55:28;5.97;;;1.85;;
49828;SDS011;35723;51.194;5.112;2022-09-01T12:57:57;9.25;;;1.90;;
49828;SDS011;35723;51.194;5.112;2022-09-01T13:00:25;6.45;;;1.90;;
49828;SDS011;35723;51.194;5.112;2022-09-01T13:08:17;11.07;;;2.10;;
49828;SDS011;35723;51.194;5.112;2022-09-01T13:10:46;4.28;;;1.90;;
49828;SDS011;35723;51.194;5.112;2022-09-01T13:13:14;7.63;;;1.98;;
49828;SDS011;35723;51.194;5.112;2022-09-01T13:15:43;6.95;;;1.80;;
49828;SDS011;35723;51.194;5.112;2022-09-01T13:18:17;10.13;;;2.40;;
49828;SDS011;35723;51.194;5.112;2022-09-01T13:20:45;8.27;;;2.15;;
49828;SDS011;35723;51.194;5.112;2022-09-01T13:23:11;8.07;;;2.10;;
49828;SDS011;35723;51.194;5.112;2022-09-01T13:25:37;6.63;;;1.85;;
49828;SDS011;35723;51.194;5.112;2022-09-01T13:28:04;9.13;;;1.88;;
49828;SDS011;35723;51.194;5.112;2022-09-01T13:30:31;7.72;;;1.83;;
49828;SDS011;35723;51.194;5.112;2022-09-01T13:32:58;8.40;;;1.90;;
49828;SDS011;35723;51.194;5.112;2022-09-01T13:35:24;7.05;;;1.83;;
49828;SDS011;35723;51.194;5.112;2022-09-01T13:37:50;7.53;;;2.03;;
49828;SDS011;35723;51.194;5.112;2022-09-01T13:40:17;7.40;;;1.90;;
49828;SDS011;35723;51.194;5.112;2022-09-01T13:42:44;4.10;;;2.00;;
49828;SDS011;35723;51.194;5.112;2022-09-01T13:45:12;6.65;;;1.90;;
49828;SDS011;35723;51.194;5.112;2022-09-01T13:47:41;8.30;;;1.80;;
49828;SDS011;35723;51.194;5.112;2022-09-01T13:50:07;7.25;;;1.80;;
49828;SDS011;35723;51.194;5.112;2022-09-01T13:52:35;4.93;;;1.67;;
49828;SDS011;35723;51.194;5.112;2022-09-01T13:55:05;5.80;;;1.95;;
49828;SDS011;35723;51.194;5.112;2022-09-01T13:57:32;6.70;;;1.77;;
49828;SDS011;35723;51.194;5.112;2022-09-01T13:59:59;5.30;;;1.77;;
49828;SDS011;35723;51.194;5.112;2022-09-01T14:02:24;9.20;;;2.05;;
49828;SDS011;35723;51.194;5.112;2022-09-01T14:04:50;9.18;;;2.00;;
49828;SDS011;35723;51.194;5.112;2022-09-01T14:07:16;8.18;;;2.00;;
49828;SDS011;35723;51.194;5.112;2022-09-01T14:09:43;5.88;;;1.80;;
49828;SDS011;35723;51.194;5.112;2022-09-01T14:12:09;11.73;;;1.88;;
49828;SDS011;35723;51.194;5.112;2022-09-01T14:14:35;11.50;;;2.15;;
49828;SDS011;35723;51.194;5.112;2022-09-01T14:17:00;5.38;;;1.65;;
49828;SDS011;35723;51.194;5.112;2022-09-01T14:19:27;8.65;;;2.00;;
49828;SDS011;35723;51.194;5.112;2022-09-01T14:21:55;9.07;;;1.83;;
49828;SDS011;35723;51.194;5.112;2022-09-01T14:24:21;6.38;;;1.80;;
49828;SDS011;35723;51.194;5.112;2022-09-01T14:26:47;7.13;;;1.60;;
49828;SDS011;35723;51.194;5.112;2022-09-01T14:29:14;7.32;;;1.98;;
49828;SDS011;35723;51.194;5.112;2022-09-01T14:31:40;8.85;;;2.22;;
49828;SDS011;35723;51.194;5.112;2022-09-01T14:34:07;7.13;;;1.90;;
49828;SDS011;35723;51.194;5.112;2022-09-01T14:36:33;5.10;;;1.90;;
49828;SDS011;35723;51.194;5.112;2022-09-01T14:38:59;6.10;;;1.80;;
49828;SDS011;35723;51.194;5.112;2022-09-01T14:41:25;5.40;;;1.88;;
49828;SDS011;35723;51.194;5.112;2022-09-01T14:43:51;7.88;;;1.92;;
49828;SDS011;35723;51.194;5.112;2022-09-01T14:46:18;7.55;;;1.80;;
49828;SDS011;35723;51.194;5.112;2022-09-01T14:48:44;6.03;;;1.85;;
49828;SDS011;35723;51.194;5.112;2022-09-01T14:51:19;7.10;;;1.90;;
49828;SDS011;35723;51.194;5.112;2022-09-01T14:53:50;5.10;;;1.70;;
49828;SDS011;35723;51.194;5.112;2022-09-01T14:56:16;8.70;;;2.03;;
49828;SDS011;35723;51.194;5.112;2022-09-01T14:58:43;7.80;;;1.70;;
49828;SDS011;35723;51.194;5.112;2022-09-01T15:01:11;7.30;;;1.98;;
49828;SDS011;35723;51.194;5.112;2022-09-01T15:03:38;4.75;;;1.88;;
49828;SDS011;35723;51.194;5.112;2022-09-01T15:06:05;6.43;;;1.70;;
49828;SDS011;35723;51.194;5.112;2022-09-01T15:08:30;3.63;;;1.48;;
49828;SDS011;35723;51.194;5.112;2022-09-01T15:10:56;9.75;;;1.80;;
49828;SDS011;35723;51.194;5.112;2022-09-01T15:13:22;4.13;;;1.35;;
49828;SDS011;35723;51.194;5.112;2022-09-01T15:15:47;9.32;;;1.85;;
49828;SDS011;35723;51.194;5.112;2022-09-01T15:18:13;8.43;;;1.70;;
49828;SDS011;35723;51.194;5.112;2022-09-01T15:20:40;4.68;;;1.90;;
49828;SDS011;35723;51.194;5.112;2022-09-01T15:23:09;4.75;;;1.55;;
49828;SDS011;35723;51.194;5.112;2022-09-01T15:25:37;5.00;;;1.75;;
49828;SDS011;35723;51.194;5.112;2022-09-01T15:28:03;3.97;;;1.65;;
49828;SDS011;35723;51.194;5.112;2022-09-01T15:30:30;2.88;;;1.67;;
49828;SDS011;35723;51.194;5.112;2022-09-01T15:32:56;3.72;;;1.67;;
49828;SDS011;35723;51.194;5.112;2022-09-01T15:35:22;5.88;;;1.50;;
49828;SDS011;35723;51.194;5.112;2022-09-01T15:37:48;5.07;;;1.65;;
49828;SDS011;35723;51.194;5.112;2022-09-01T15:40:15;8.00;;;1.83;;
49828;SDS011;35723;51.194;5.112;2022-09-01T15:42:41;4.88;;;1.77;;
49828;SDS011;35723;51.194;5.112;2022-09-01T15:45:09;7.13;;;1.55;;
49828;SDS011;35723;51.194;5.112;2022-09-01T15:47:36;7.38;;;1.70;;
49828;SDS011;35723;51.194;5.112;2022-09-01T15:50:03;3.65;;;1.65;;
49828;SDS011;35723;51.194;5.112;2022-09-01T15:52:31;5.07;;;1.63;;
49828;SDS011;35723;51.194;5.112;2022-09-01T15:54:56;4.28;;;1.50;;
49828;SDS011;35723;51.194;5.112;2022-09-01T15:57:22;6.65;;;2.00;;
49828;SDS011;35723;51.194;5.112;2022-09-01T15:59:48;5.07;;;1.60;;
49828;SDS011;35723;51.194;5.112;2022-09-01T16:02:13;3.33;;;1.55;;
49828;SDS011;35723;51.194;5.112;2022-09-01T16:04:41;3.10;;;1.60;;
49828;SDS011;35723;51.194;5.112;2022-09-01T16:07:07;8.15;;;1.90;;
49828;SDS011;35723;51.194;5.112;2022-09-01T16:09:33;5.22;;;1.60;;